Time;durP1;ratioP1;P1;durP2;ratioP2;P2;SDS_P1;SDS_P2;PMS_P1;PMS_P2;Temp;Humidity;BMP_temperature;BMP_pressure;BME280_temperature;BME280_humidity;BME280_pressure;Samples;Min_cycle;Max_cycle;Signal;HPM_P1;HPM_P2
2024/01/01 00:01:48;;;;;;;;;;;205.60;2252.80;;;;;;4958449;28;20370;-76
2024/01/01 00:04:14;;;;;;;;;;;205.50;2252.80;;;;;;4965597;28;19910;-77
2024/01/01 00:06:40;;;;;;;;;;;205.50;2252.80;;;;;;4959073;28;19918;-75
2024/01/01 00:09:05;;;;;;;;;;;205.50;2252.80;;;;;;4975490;28;20383;-79
2024/01/01 00:11:31;;;;;;;;;;;205.50;2252.80;;;;;;4976161;28;19969;-76
2024/01/01 00:13:56;;;;;;;;;;;205.50;2252.80;;;;;;4978084;28;19997;-75
2024/01/01 00:16:22;;;;;;;;;;;205.50;2252.80;;;;;;4958809;28;19910;-78
2024/01/01 00:18:48;;;;;;;;;;;205.50;2252.80;;;;;;4958744;28;19912;-76
2024/01/01 00:21:13;;;;;;;;;;;205.50;2252.80;;;;;;4974955;28;20261;-73
2024/01/01 00:23:39;;;;;;;;;;;205.40;2252.80;;;;;;4975901;28;19961;-76
2024/01/01 00:26:05;;;;;;;;;;;205.40;2252.80;;;;;;4975556;28;19910;-76
2024/01/01 00:28:30;;;;;;;;;;;205.30;2252.80;;;;;;4975308;28;20080;-79
2024/01/01 00:30:56;;;;;;;;;;;205.40;2252.80;;;;;;4956412;28;20428;-73
2024/01/01 00:33:22;;;;;;;;;;;205.40;2252.80;;;;;;4969175;28;19914;-75
2024/01/01 00:35:48;;;;;;;;;;;205.40;2252.80;;;;;;4975673;28;20418;-74
2024/01/01 00:38:14;;;;;;;;;;;205.40;2252.80;;;;;;4975651;28;19952;-73
2024/01/01 00:40:39;;;;;;;;;;;205.40;2252.80;;;;;;4958619;28;19941;-77
2024/01/01 00:43:05;;;;;;;;;;;205.30;2252.80;;;;;;4975484;28;19910;-75
2024/01/01 00:45:30;;;;;;;;;;;205.30;2252.80;;;;;;4960242;28;19932;-78
2024/01/01 00:47:56;;;;;;;;;;;205.30;2252.80;;;;;;4954855;28;19948;-75
2024/01/01 00:50:22;;;;;;;;;;;205.30;2252.80;;;;;;4977078;28;20312;-77
2024/01/01 00:52:47;;;;;;;;;;;205.30;2252.80;;;;;;4959188;28;19957;-76
2024/01/01 00:55:13;;;;;;;;;;;205.30;2252.80;;;;;;4977493;28;19913;-76
2024/01/01 00:57:39;;;;;;;;;;;205.30;2252.80;;;;;;4976589;28;19917;-76
2024/01/01 01:00:04;;;;;;;;;;;205.30;2252.80;;;;;;4976871;28;19938;-75
2024/01/01 01:02:30;;;;;;;;;;;205.30;2252.80;;;;;;4976534;28;19906;-75
2024/01/01 01:04:56;;;;;;;;;;;205.40;2252.80;;;;;;4976163;28;19914;-77
2024/01/01 01:07:22;;;;;;;;;;;205.40;2252.80;;;;;;4975958;28;19907;-74
2024/01/01 01:09:47;;;;;;;;;;;205.40;2252.80;;;;;;4975974;28;19906;-75
2024/01/01 01:12:13;;;;;;;;;;;205.40;2252.80;;;;;;4958125;28;19920;-75
2024/01/01 01:14:39;;;;;;;;;;;205.30;2252.80;;;;;;4975566;28;19917;-75
2024/01/01 01:17:04;;;;;;;;;;;205.30;2252.80;;;;;;4971860;28;19917;-74
2024/01/01 01:19:30;;;;;;;;;;;205.30;2252.80;;;;;;4975991;28;20344;-76
2024/01/01 01:21:56;;;;;;;;;;;205.40;2252.80;;;;;;4963787;28;20387;-75
2024/01/01 01:24:21;;;;;;;;;;;205.40;2252.80;;;;;;4968230;28;19918;-76
2024/01/01 01:26:47;;;;;;;;;;;205.40;2252.80;;;;;;4973868;28;19906;-76
2024/01/01 01:29:12;;;;;;;;;;;205.40;2252.80;;;;;;4974381;28;19948;-76
2024/01/01 01:31:40;;;;;;;;;;;205.40;2252.80;;;;;;4959246;28;19968;-75
2024/01/01 01:34:05;;;;;;;;;;;205.40;2252.80;;;;;;4975043;28;19910;-75
2024/01/01 01:36:31;;;;;;;;;;;205.40;2252.80;;;;;;4974216;28;20356;-75
2024/01/01 01:38:58;;;;;;;;;;;205.40;2252.80;;;;;;4974249;28;19910;-77
2024/01/01 01:41:23;;;;;;;;;;;205.40;2252.80;;;;;;4974778;28;19978;-75
2024/01/01 01:43:49;;;;;;;;;;;205.40;2252.80;;;;;;4974714;28;19953;-76
2024/01/01 01:46:15;;;;;;;;;;;205.40;2252.80;;;;;;4975116;28;20276;-76
2024/01/01 01:48:41;;;;;;;;;;;205.30;2252.80;;;;;;4965935;28;20283;-79
2024/01/01 01:51:07;;;;;;;;;;;205.30;2252.80;;;;;;4974788;28;19914;-80
2024/01/01 01:53:33;;;;;;;;;;;205.20;2252.80;;;;;;4975308;28;19906;-76
2024/01/01 01:56:01;;;;;;;;;;;205.20;2252.80;;;;;;4981755;28;19930;-75
2024/01/01 01:58:28;;;;;;;;;;;205.10;2252.80;;;;;;4981077;28;19969;-76
2024/01/01 02:00:54;;;;;;;;;;;205.20;2252.80;;;;;;4975884;28;19906;-76
2024/01/01 02:03:20;;;;;;;;;;;205.10;2252.80;;;;;;4975304;28;19906;-78
2024/01/01 02:05:46;;;;;;;;;;;205.10;2252.80;;;;;;4974638;28;19906;-75
2024/01/01 02:08:12;;;;;;;;;;;205.10;2252.80;;;;;;4974327;28;20359;-76
2024/01/01 02:10:37;;;;;;;;;;;205.00;2252.80;;;;;;4957338;28;19921;-78
2024/01/01 02:13:03;;;;;;;;;;;205.00;2252.80;;;;;;4974519;28;19906;-80
2024/01/01 02:15:29;;;;;;;;;;;205.00;2252.80;;;;;;4974455;28;20045;-76
2024/01/01 02:17:54;;;;;;;;;;;204.90;2252.80;;;;;;4974611;28;19910;-75
2024/01/01 02:20:20;;;;;;;;;;;204.90;2252.80;;;;;;4974870;28;20035;-79
2024/01/01 02:22:46;;;;;;;;;;;204.90;2252.80;;;;;;4974321;28;19973;-79
2024/01/01 02:25:12;;;;;;;;;;;204.90;2252.80;;;;;;4974183;28;19996;-76
2024/01/01 02:27:38;;;;;;;;;;;204.90;2252.80;;;;;;4954800;28;19906;-75
2024/01/01 02:30:05;;;;;;;;;;;204.90;2252.80;;;;;;4974747;28;19910;-77
2024/01/01 02:32:30;;;;;;;;;;;204.90;2252.80;;;;;;4975420;28;20384;-78
2024/01/01 02:34:56;;;;;;;;;;;204.80;2252.80;;;;;;4977387;28;19961;-76
2024/01/01 02:37:22;;;;;;;;;;;204.80;2252.80;;;;;;4978764;28;19906;-75
2024/01/01 02:39:47;;;;;;;;;;;204.80;2252.80;;;;;;4971499;28;19910;-77
2024/01/01 02:42:13;;;;;;;;;;;204.80;2252.80;;;;;;4962624;28;19910;-81
2024/01/01 02:44:38;;;;;;;;;;;204.80;2252.80;;;;;;4976747;28;20287;-79
2024/01/01 02:47:04;;;;;;;;;;;204.80;2252.80;;;;;;4961525;28;19917;-76
2024/01/01 02:49:30;;;;;;;;;;;180.10;2252.80;;;;;;4978455;28;19906;-78
2024/01/01 02:51:56;;;;;;;;;;;180.10;2252.80;;;;;;4961262;28;19914;-74
2024/01/01 02:54:21;;;;;;;;;;;180.10;2252.80;;;;;;4978470;28;19913;-78
2024/01/01 02:56:47;;;;;;;;;;;180.10;2252.80;;;;;;4978409;28;19906;-76
2024/01/01 02:59:13;;;;;;;;;;;180.10;2252.80;;;;;;4960912;28;19910;-80
2024/01/01 03:01:38;;;;;;;;;;;180.10;2252.80;;;;;;4978455;28;19906;-81
2024/01/01 03:04:04;;;;;;;;;;;180.10;2252.80;;;;;;4978233;28;19937;-77
2024/01/01 03:06:30;;;;;;;;;;;180.10;2252.80;;;;;;4961265;28;20411;-80
2024/01/01 03:08:55;;;;;;;;;;;180.10;2252.80;;;;;;4973969;28;19965;-80
2024/01/01 03:11:21;;;;;;;;;;;180.10;2252.80;;;;;;4969946;28;20017;-76
2024/01/01 03:13:46;;;;;;;;;;;180.10;2252.80;;;;;;4977968;28;20360;-81
2024/01/01 03:16:13;;;;;;;;;;;180.10;2252.80;;;;;;4960964;28;19910;-78
2024/01/01 03:18:39;;;;;;;;;;;180.10;2252.80;;;;;;4978044;28;20000;-80
2024/01/01 03:21:04;;;;;;;;;;;204.80;2252.80;;;;;;4978034;28;20312;-78
2024/01/01 03:23:30;;;;;;;;;;;204.80;2252.80;;;;;;4977933;28;19965;-75
2024/01/01 03:25:56;;;;;;;;;;;204.80;2252.80;;;;;;4978186;28;19952;-76
2024/01/01 03:28:21;;;;;;;;;;;204.90;2252.80;;;;;;4977929;28;19906;-76
2024/01/01 03:30:47;;;;;;;;;;;204.90;2252.80;;;;;;4960530;28;20288;-75
2024/01/01 03:33:12;;;;;;;;;;;204.90;2252.80;;;;;;4977773;28;20383;-77
2024/01/01 03:35:38;;;;;;;;;;;204.90;2252.80;;;;;;4977805;28;19910;-77
2024/01/01 03:38:04;;;;;;;;;;;205.00;2252.80;;;;;;4977755;28;20021;-76
2024/01/01 03:40:30;;;;;;;;;;;204.90;2252.80;;;;;;4977763;28;19913;-76
2024/01/01 03:42:56;;;;;;;;;;;204.90;2252.80;;;;;;4977096;28;19910;-75
2024/01/01 03:45:21;;;;;;;;;;;204.90;2252.80;;;;;;4960153;28;19918;-75
2024/01/01 03:47:47;;;;;;;;;;;204.90;2252.80;;;;;;4977294;28;19906;-76
2024/01/01 03:50:14;;;;;;;;;;;204.90;2252.80;;;;;;4960278;28;20345;-75
2024/01/01 03:52:40;;;;;;;;;;;205.00;2252.80;;;;;;4960018;28;19916;-76
2024/01/01 03:55:06;;;;;;;;;;;205.00;2252.80;;;;;;4960335;28;20416;-80
2024/01/01 03:57:32;;;;;;;;;;;205.00;2252.80;;;;;;4975987;28;19906;-78
2024/01/01 03:59:58;;;;;;;;;;;205.00;2252.80;;;;;;4977281;28;19906;-81
2024/01/01 04:02:24;;;;;;;;;;;205.10;2252.80;;;;;;4977496;28;19917;-77
2024/01/01 04:04:50;;;;;;;;;;;205.10;2252.80;;;;;;4977227;28;19961;-75
2024/01/01 04:07:16;;;;;;;;;;;205.10;2252.80;;;;;;4977287;28;19906;-77
2024/01/01 04:09:42;;;;;;;;;;;205.10;2252.80;;;;;;4977598;28;19906;-77
2024/01/01 04:12:08;;;;;;;;;;;205.10;2252.80;;;;;;4976731;28;19921;-77
2024/01/01 04:14:33;;;;;;;;;;;205.10;2252.80;;;;;;4976974;28;19914;-75
2024/01/01 04:16:59;;;;;;;;;;;205.10;2252.80;;;;;;4959610;28;20058;-76
2024/01/01 04:19:25;;;;;;;;;;;205.20;2252.80;;;;;;4977153;28;19906;-76
2024/01/01 04:21:50;;;;;;;;;;;205.20;2252.80;;;;;;4964281;28;19906;-75
2024/01/01 04:24:16;;;;;;;;;;;205.10;2252.80;;;;;;4976932;28;19918;-79
2024/01/01 04:26:41;;;;;;;;;;;205.10;2252.80;;;;;;4976695;28;19977;-78
2024/01/01 04:29:07;;;;;;;;;;;205.10;2252.80;;;;;;4976785;28;19952;-77
2024/01/01 04:31:32;;;;;;;;;;;205.10;2252.80;;;;;;4976534;28;19957;-80
2024/01/01 04:33:58;;;;;;;;;;;205.10;2252.80;;;;;;4976778;28;19906;-77
2024/01/01 04:36:24;;;;;;;;;;;205.10;2252.80;;;;;;4976462;28;19949;-75
2024/01/01 04:38:50;;;;;;;;;;;205.10;2252.80;;;;;;4976718;28;19906;-75
2024/01/01 04:41:15;;;;;;;;;;;205.00;2252.80;;;;;;4976494;28;19961;-79
2024/01/01 04:43:41;;;;;;;;;;;205.00;2252.80;;;;;;4976249;28;19918;-79
2024/01/01 04:46:08;;;;;;;;;;;205.00;2252.80;;;;;;4976420;28;19913;-75
2024/01/01 04:48:34;;;;;;;;;;;205.10;2252.80;;;;;;4976397;28;19932;-75
2024/01/01 04:51:00;;;;;;;;;;;205.00;2252.80;;;;;;4976045;28;19920;-75
2024/01/01 04:53:25;;;;;;;;;;;205.00;2252.80;;;;;;4976410;28;20337;-78
2024/01/01 04:55:51;;;;;;;;;;;205.00;2252.80;;;;;;4975673;28;19913;-75
2024/01/01 04:58:16;;;;;;;;;;;205.00;2252.80;;;;;;4976839;28;19906;-76
2024/01/01 05:00:42;;;;;;;;;;;205.00;2252.80;;;;;;4975777;28;19913;-76
2024/01/01 05:03:08;;;;;;;;;;;205.00;2252.80;;;;;;4976317;28;19906;-75
2024/01/01 05:05:33;;;;;;;;;;;205.00;2252.80;;;;;;4976079;28;19973;-76
2024/01/01 05:07:59;;;;;;;;;;;205.00;2252.80;;;;;;4976460;28;19913;-76
2024/01/01 05:10:24;;;;;;;;;;;204.90;2252.80;;;;;;4976118;28;19910;-77
2024/01/01 05:12:50;;;;;;;;;;;205.00;2252.80;;;;;;4983152;28;20391;-76
2024/01/01 05:15:16;;;;;;;;;;;205.00;2252.80;;;;;;4987680;28;19898;-76
2024/01/01 05:17:41;;;;;;;;;;;205.00;2252.80;;;;;;4983405;28;19913;-77
2024/01/01 05:20:07;;;;;;;;;;;205.10;2252.80;;;;;;4958841;28;19906;-80
2024/01/01 05:22:33;;;;;;;;;;;205.10;2252.80;;;;;;4976159;28;19918;-80
2024/01/01 05:24:58;;;;;;;;;;;205.10;2252.80;;;;;;4975398;28;19906;-78
2024/01/01 05:27:25;;;;;;;;;;;205.10;2252.80;;;;;;4975848;28;20360;-80
2024/01/01 05:29:51;;;;;;;;;;;205.10;2252.80;;;;;;4975450;28;19906;-75
2024/01/01 05:32:16;;;;;;;;;;;205.10;2252.80;;;;;;4975561;28;19949;-77
2024/01/01 05:34:42;;;;;;;;;;;205.20;2252.80;;;;;;4975465;28;19937;-78
2024/01/01 05:37:08;;;;;;;;;;;205.30;2252.80;;;;;;4975830;28;19906;-80
2024/01/01 05:39:33;;;;;;;;;;;205.20;2252.80;;;;;;4975341;28;19913;-77
2024/01/01 05:41:59;;;;;;;;;;;205.30;2252.80;;;;;;4958642;28;19988;-75
2024/01/01 05:44:25;;;;;;;;;;;205.40;2252.80;;;;;;4975317;28;20005;-76
2024/01/01 05:46:50;;;;;;;;;;;205.40;2252.80;;;;;;4974272;28;20351;-80
2024/01/01 05:49:17;;;;;;;;;;;205.40;2252.80;;;;;;4975302;28;19906;-76
2024/01/01 05:51:43;;;;;;;;;;;205.40;2252.80;;;;;;4975316;28;19914;-75
2024/01/01 05:54:09;;;;;;;;;;;205.40;2252.80;;;;;;4972972;28;19913;-76
2024/01/01 05:56:34;;;;;;;;;;;205.40;2252.80;;;;;;4974730;28;19910;-77
2024/01/01 05:59:00;;;;;;;;;;;205.40;2252.80;;;;;;4957455;28;20426;-75
2024/01/01 06:01:26;;;;;;;;;;;205.40;2252.80;;;;;;4974934;28;19906;-81
2024/01/01 06:03:52;;;;;;;;;;;205.50;2252.80;;;;;;4974780;28;19961;-77
2024/01/01 06:06:17;;;;;;;;;;;205.40;2252.80;;;;;;4974756;28;19906;-80
2024/01/01 06:08:43;;;;;;;;;;;205.40;2252.80;;;;;;4974807;28;19996;-74
2024/01/01 06:11:09;;;;;;;;;;;205.40;2252.80;;;;;;4957288;28;19910;-74
2024/01/01 06:13:35;;;;;;;;;;;205.40;2252.80;;;;;;4974852;28;20316;-75
2024/01/01 06:16:02;;;;;;;;;;;205.40;2252.80;;;;;;4974231;28;19906;-80
2024/01/01 06:18:28;;;;;;;;;;;205.40;2252.80;;;;;;4974537;28;19910;-77
2024/01/01 06:20:54;;;;;;;;;;;205.40;2252.80;;;;;;4974220;28;20392;-75
2024/01/01 06:23:19;;;;;;;;;;;205.40;2252.80;;;;;;4974048;28;19918;-79
2024/01/01 06:25:45;;;;;;;;;;;205.40;2252.80;;;;;;4973935;28;19915;-77
2024/01/01 06:28:11;;;;;;;;;;;205.40;2252.80;;;;;;4974104;28;19989;-73
2024/01/01 06:30:36;;;;;;;;;;;205.40;2252.80;;;;;;4974767;28;19913;-75
2024/01/01 06:33:03;;;;;;;;;;;205.40;2252.80;;;;;;4973810;28;19906;-75
2024/01/01 06:35:30;;;;;;;;;;;205.40;2252.80;;;;;;4974222;28;19906;-77
2024/01/01 06:37:56;;;;;;;;;;;205.40;2252.80;;;;;;4971657;28;19989;-74
2024/01/01 06:40:22;;;;;;;;;;;205.40;2252.80;;;;;;4974614;28;20045;-75
2024/01/01 06:42:47;;;;;;;;;;;205.40;2252.80;;;;;;4973835;28;20012;-73
2024/01/01 06:45:13;;;;;;;;;;;205.40;2252.80;;;;;;4974074;28;19915;-78
2024/01/01 06:47:39;;;;;;;;;;;205.30;2252.80;;;;;;4970165;28;19913;-77
2024/01/01 06:50:05;;;;;;;;;;;205.30;2252.80;;;;;;4974215;28;19906;-74
2024/01/01 06:52:30;;;;;;;;;;;205.30;2252.80;;;;;;4973984;28;19965;-74
2024/01/01 06:54:56;;;;;;;;;;;205.30;2252.80;;;;;;4973983;28;19906;-75
2024/01/01 06:57:21;;;;;;;;;;;205.30;2252.80;;;;;;4974281;28;19906;-77
2024/01/01 06:59:47;;;;;;;;;;;205.30;2252.80;;;;;;4974040;28;20265;-75
2024/01/01 07:02:13;;;;;;;;;;;205.30;2252.80;;;;;;4973615;28;20284;-75
2024/01/01 07:04:38;;;;;;;;;;;205.30;2252.80;;;;;;4973900;28;19913;-76
2024/01/01 07:07:04;;;;;;;;;;;205.30;2252.80;;;;;;4974127;28;19914;-75
2024/01/01 07:09:30;;;;;;;;;;;205.30;2252.80;;;;;;4956484;28;20352;-75
2024/01/01 07:11:58;;;;;;;;;;;205.30;2252.80;;;;;;4973135;28;19925;-75
2024/01/01 07:14:25;;;;;;;;;;;205.30;2252.80;;;;;;4972772;28;19914;-73
2024/01/01 07:16:52;;;;;;;;;;;205.30;2252.80;;;;;;4973281;28;20373;-73
2024/01/01 07:19:17;;;;;;;;;;;205.30;2252.80;;;;;;4975237;28;20311;-75
2024/01/01 07:21:43;;;;;;;;;;;205.30;2252.80;;;;;;4957926;28;20000;-75
2024/01/01 07:24:08;;;;;;;;;;;205.30;2252.80;;;;;;4974358;28;19918;-74
2024/01/01 07:26:34;;;;;;;;;;;205.40;2252.80;;;;;;4958888;28;19910;-75
2024/01/01 07:29:00;;;;;;;;;;;205.40;2252.80;;;;;;4976599;28;19913;-74
2024/01/01 07:31:26;;;;;;;;;;;205.50;2252.80;;;;;;4959432;28;19918;-74
2024/01/01 07:33:51;;;;;;;;;;;205.50;2252.80;;;;;;4976784;28;19912;-78
2024/01/01 07:36:17;;;;;;;;;;;205.60;2252.80;;;;;;4976435;28;19918;-77
2024/01/01 07:38:43;;;;;;;;;;;205.60;2252.80;;;;;;4959214;28;20360;-79
2024/01/01 07:41:08;;;;;;;;;;;205.30;2252.80;;;;;;4959636;28;19913;-80
2024/01/01 07:43:34;;;;;;;;;;;205.50;2252.80;;;;;;4966569;28;20342;-77
2024/01/01 07:45:59;;;;;;;;;;;205.60;2252.80;;;;;;4976415;28;20000;-76
2024/01/01 07:48:26;;;;;;;;;;;205.60;2252.80;;;;;;4972298;28;20380;-75
2024/01/01 07:50:51;;;;;;;;;;;205.60;2252.80;;;;;;4959713;28;19980;-76
2024/01/01 07:53:17;;;;;;;;;;;205.70;2252.80;;;;;;4974279;28;20364;-78
2024/01/01 07:55:43;;;;;;;;;;;205.70;2252.80;;;;;;4976522;28;19917;-76
2024/01/01 07:58:08;;;;;;;;;;;230.40;2252.80;;;;;;4976938;28;19906;-78
2024/01/01 08:00:34;;;;;;;;;;;230.40;2252.80;;;;;;4977241;28;19913;-76
2024/01/01 08:02:59;;;;;;;;;;;230.40;2252.80;;;;;;4976364;28;19949;-78
2024/01/01 08:05:25;;;;;;;;;;;230.40;2252.80;;;;;;4973460;28;19910;-74
2024/01/01 08:07:50;;;;;;;;;;;230.50;2252.80;;;;;;4976281;28;20281;-79
2024/01/01 08:10:17;;;;;;;;;;;230.50;2252.80;;;;;;4976529;28;20368;-81
2024/01/01 08:12:43;;;;;;;;;;;230.60;2252.80;;;;;;4976654;28;19921;-78
2024/01/01 08:15:08;;;;;;;;;;;230.60;2252.80;;;;;;4975901;28;19913;-72
2024/01/01 08:17:34;;;;;;;;;;;230.70;2252.80;;;;;;4976163;28;20394;-81
2024/01/01 08:20:00;;;;;;;;;;;230.70;2252.80;;;;;;4976897;28;19996;-81
2024/01/01 08:22:25;;;;;;;;;;;230.70;2252.80;;;;;;4976037;28;20020;-74
2024/01/01 08:24:51;;;;;;;;;;;230.80;2252.80;;;;;;4976544;28;19969;-75
2024/01/01 08:27:17;;;;;;;;;;;230.80;2252.80;;;;;;4976030;28;20021;-76
2024/01/01 08:29:42;;;;;;;;;;;230.80;2252.80;;;;;;4958344;28;19906;-75
2024/01/01 08:32:08;;;;;;;;;;;230.90;2252.80;;;;;;4981040;28;19918;-74
2024/01/01 08:34:34;;;;;;;;;;;230.90;2252.80;;;;;;4983239;28;20327;-74
2024/01/01 08:37:01;;;;;;;;;;;230.90;2252.80;;;;;;4976932;28;19906;-77
2024/01/01 08:39:27;;;;;;;;;;;230.90;2252.80;;;;;;4958934;28;19912;-76
2024/01/01 08:41:53;;;;;;;;;;;205.60;2252.80;;;;;;4973746;28;20352;-76
2024/01/01 08:44:18;;;;;;;;;;;230.90;2252.80;;;;;;4976021;28;19914;-81
2024/01/01 08:46:44;;;;;;;;;;;230.90;2252.80;;;;;;4958441;28;19968;-75
2024/01/01 08:49:10;;;;;;;;;;;231.00;2252.80;;;;;;4975449;28;20326;-73
2024/01/01 08:51:36;;;;;;;;;;;231.00;2252.80;;;;;;4975916;28;19921;-74
2024/01/01 08:54:03;;;;;;;;;;;231.10;2252.80;;;;;;4975663;28;19906;-75
2024/01/01 08:56:28;;;;;;;;;;;231.10;2252.80;;;;;;4968741;28;20368;-75
2024/01/01 08:58:54;;;;;;;;;;;231.20;2252.80;;;;;;4975625;28;19906;-76
2024/01/01 09:01:20;;;;;;;;;;;231.20;2252.80;;;;;;4976185;28;19906;-77
2024/01/01 09:03:45;;;;;;;;;;;231.30;2252.80;;;;;;4975249;28;20343;-76
2024/01/01 09:06:13;;;;;;;;;;;231.30;2252.80;;;;;;4970850;28;19949;-75
2024/01/01 09:08:39;;;;;;;;;;;256.00;2252.80;;;;;;4957127;28;20443;-76
2024/01/01 09:11:05;;;;;;;;;;;256.10;2252.80;;;;;;4975829;28;19914;-76
2024/01/01 09:13:31;;;;;;;;;;;256.10;2252.80;;;;;;4956587;28;20364;-75
2024/01/01 09:15:57;;;;;;;;;;;256.20;2252.80;;;;;;4974208;28;19921;-75
2024/01/01 09:18:22;;;;;;;;;;;256.20;2252.80;;;;;;4972339;28;19910;-79
2024/01/01 09:20:48;;;;;;;;;;;256.30;2252.80;;;;;;4957747;28;19914;-78
2024/01/01 09:23:13;;;;;;;;;;;256.40;2252.80;;;;;;4957504;28;19918;-78
2024/01/01 09:25:42;;;;;;;;;;;256.60;2252.80;;;;;;4975087;28;20004;-78
2024/01/01 09:28:08;;;;;;;;;;;256.80;2252.80;;;;;;4957892;28;19906;-77
2024/01/01 09:30:34;;;;;;;;;;;256.90;2252.80;;;;;;4957911;28;20249;-78
2024/01/01 09:32:59;;;;;;;;;;;281.80;2278.40;;;;;;4965057;28;19910;-77
2024/01/01 09:35:25;;;;;;;;;;;281.90;2278.40;;;;;;4974260;28;19977;-78
2024/01/01 09:37:53;;;;;;;;;;;282.00;2278.40;;;;;;4974373;28;19910;-76
2024/01/01 09:40:20;;;;;;;;;;;281.80;2278.40;;;;;;4956438;28;19914;-77
2024/01/01 09:42:52;;;;;;;;;;;281.80;2278.40;;;;;;4957276;28;20265;-77
2024/01/01 09:45:18;;;;;;;;;;;281.80;2278.40;;;;;;4974493;28;20387;-76
2024/01/01 09:47:44;;;;;;;;;;;281.90;2278.40;;;;;;4951678;28;19953;-78
2024/01/01 09:50:10;;;;;;;;;;;282.00;2278.40;;;;;;4973790;28;19937;-77
2024/01/01 09:52:36;;;;;;;;;;;281.80;2278.40;;;;;;4973898;28;19996;-76
2024/01/01 09:55:02;;;;;;;;;;;282.00;2278.40;;;;;;4973974;28;20378;-77
2024/01/01 09:57:28;;;;;;;;;;;282.00;2278.40;;;;;;4973911;28;19910;-75
2024/01/01 09:59:54;;;;;;;;;;;282.20;2278.40;;;;;;4974540;28;20336;-77
2024/01/01 10:02:22;;;;;;;;;;;282.20;2278.40;;;;;;4973766;28;19910;-78
2024/01/01 10:04:47;;;;;;;;;;;282.30;2278.40;;;;;;4971036;28;20024;-78
2024/01/01 10:07:24;;;;;;;;;;;282.30;2278.40;;;;;;4973982;28;20320;-78
2024/01/01 10:09:49;;;;;;;;;;;282.40;2278.40;;;;;;4973955;28;19910;-76
2024/01/01 10:12:16;;;;;;;;;;;282.50;2278.40;;;;;;4947929;28;20399;-78
2024/01/01 10:14:46;;;;;;;;;;;282.50;2278.40;;;;;;4974243;28;20418;-78
2024/01/01 10:17:12;;;;;;;;;;;307.20;2304.00;;;;;;4956860;28;19921;-78
2024/01/01 10:19:48;;;;;;;;;;;307.20;2304.00;;;;;;4974382;28;19933;-78
2024/01/01 10:22:14;;;;;;;;;;;307.30;2304.00;;;;;;4948344;28;19913;-78
2024/01/01 10:24:39;;;;;;;;;;;307.30;2304.00;;;;;;4974087;28;19906;-78
2024/01/01 10:27:05;;;;;;;;;;;307.30;2304.00;;;;;;4974008;28;20064;-79
2024/01/01 10:29:33;;;;;;;;;;;307.30;2304.00;;;;;;4974560;28;20253;-75
2024/01/01 10:32:00;;;;;;;;;;;307.50;2304.00;;;;;;4973914;28;19925;-77
2024/01/01 10:34:26;;;;;;;;;;;307.60;2304.00;;;;;;4974265;28;19957;-78
2024/01/01 10:36:53;;;;;;;;;;;307.70;2304.00;;;;;;4974132;28;20349;-78
2024/01/01 10:39:19;;;;;;;;;;;307.70;2304.00;;;;;;4973796;28;19910;-77
2024/01/01 10:41:46;;;;;;;;;;;307.60;2304.00;;;;;;4956678;28;19910;-78
2024/01/01 10:44:12;;;;;;;;;;;307.50;2304.00;;;;;;4974027;28;19910;-77
2024/01/01 10:46:45;;;;;;;;;;;307.30;2304.00;;;;;;4973988;28;20327;-76
2024/01/01 10:49:14;;;;;;;;;;;307.20;2304.00;;;;;;4955899;28;20300;-73
2024/01/01 10:52:01;;;;;;;;;;;282.50;2278.40;;;;;;4974037;28;19914;-76
2024/01/01 10:54:29;;;;;;;;;;;282.00;2278.40;;;;;;4976041;28;19906;-74
2024/01/01 10:57:07;;;;;;;;;;;282.10;2278.40;;;;;;4977799;28;20351;-75
2024/01/01 11:00:02;;;;;;;;;;;281.90;2278.40;;;;;;4977608;28;19906;-73
2024/01/01 11:02:27;;;;;;;;;;;281.80;2278.40;;;;;;4958479;28;19961;-72
2024/01/01 11:05:06;;;;;;;;;;;256.80;2252.80;;;;;;4978038;28;19906;-76
2024/01/01 11:07:50;;;;;;;;;;;256.70;2252.80;;;;;;4977439;28;20021;-76
2024/01/01 11:10:32;;;;;;;;;;;256.40;2252.80;;;;;;4974567;28;19998;-78
2024/01/01 11:12:58;;;;;;;;;;;256.40;2252.80;;;;;;4974360;28;19918;-72
2024/01/01 11:15:39;;;;;;;;;;;256.40;2252.80;;;;;;4977249;28;19910;-74
2024/01/01 11:18:11;;;;;;;;;;;256.30;2252.80;;;;;;4975942;28;19918;-73
2024/01/01 11:20:55;;;;;;;;;;;256.20;2252.80;;;;;;4977632;28;19906;-74
2024/01/01 11:23:43;;;;;;;;;;;256.20;2252.80;;;;;;4977157;28;19917;-76
2024/01/01 11:26:24;;;;;;;;;;;256.10;2252.80;;;;;;4977051;28;19906;-76
2024/01/01 11:28:49;;;;;;;;;;;256.20;2252.80;;;;;;4976468;28;19910;-74
2024/01/01 11:31:15;;;;;;;;;;;256.20;2252.80;;;;;;4976816;28;19922;-77
2024/01/01 11:33:40;;;;;;;;;;;256.20;2252.80;;;;;;4977186;28;19975;-74
2024/01/01 11:36:09;;;;;;;;;;;256.20;2252.80;;;;;;4976776;28;19915;-78
2024/01/01 11:38:35;;;;;;;;;;;256.20;2252.80;;;;;;4977284;28;19961;-76
2024/01/01 11:41:00;;;;;;;;;;;256.20;2252.80;;;;;;4976640;28;19913;-74
2024/01/01 11:43:26;;;;;;;;;;;256.10;2252.80;;;;;;4976850;28;19910;-75
2024/01/01 11:45:55;;;;;;;;;;;256.00;2252.80;;;;;;4976839;28;20336;-74
2024/01/01 11:48:21;;;;;;;;;;;256.00;2252.80;;;;;;4980493;28;19910;-74
2024/01/01 11:50:48;;;;;;;;;;;256.00;2252.80;;;;;;4979382;28;19910;-74
2024/01/01 11:53:14;;;;;;;;;;;256.00;2252.80;;;;;;4977534;28;19910;-75
2024/01/01 11:55:40;;;;;;;;;;;256.20;2252.80;;;;;;4972864;28;19952;-76
2024/01/01 11:58:06;;;;;;;;;;;231.20;2252.80;;;;;;4974970;28;19941;-76
2024/01/01 12:00:32;;;;;;;;;;;231.20;2252.80;;;;;;4973085;28;19997;-77
2024/01/01 12:02:58;;;;;;;;;;;231.20;2252.80;;;;;;4958914;28;19917;-75
2024/01/01 12:05:23;;;;;;;;;;;231.20;2252.80;;;;;;4976534;28;19906;-74
2024/01/01 12:07:49;;;;;;;;;;;231.20;2252.80;;;;;;4974906;28;20017;-78
2024/01/01 12:10:16;;;;;;;;;;;231.30;2252.80;;;;;;4975828;28;19914;-75
2024/01/01 12:12:42;;;;;;;;;;;231.30;2252.80;;;;;;4970014;28;19925;-74
2024/01/01 12:15:12;;;;;;;;;;;231.30;2252.80;;;;;;4976472;28;19948;-74
2024/01/01 12:17:38;;;;;;;;;;;231.20;2252.80;;;;;;4974688;28;19969;-75
2024/01/01 12:20:05;;;;;;;;;;;231.20;2252.80;;;;;;4975086;28;19942;-77
2024/01/01 12:22:30;;;;;;;;;;;231.30;2252.80;;;;;;4974626;28;19956;-76
2024/01/01 12:24:59;;;;;;;;;;;231.20;2252.80;;;;;;4976411;28;19949;-74
2024/01/01 12:27:25;;;;;;;;;;;231.20;2252.80;;;;;;4975329;28;20394;-78
2024/01/01 12:29:51;;;;;;;;;;;231.30;2252.80;;;;;;4958941;28;19906;-75
2024/01/01 12:32:16;;;;;;;;;;;256.00;2252.80;;;;;;4976401;28;19914;-74
2024/01/01 12:34:42;;;;;;;;;;;231.30;2252.80;;;;;;4976416;28;19906;-75
2024/01/01 12:37:10;;;;;;;;;;;231.20;2252.80;;;;;;4977565;28;19976;-75
2024/01/01 12:39:36;;;;;;;;;;;231.20;2252.80;;;;;;4975199;28;19918;-76
2024/01/01 12:42:03;;;;;;;;;;;231.20;2252.80;;;;;;4976347;28;20364;-75
2024/01/01 12:44:28;;;;;;;;;;;231.20;2252.80;;;;;;4954670;28;19910;-76
2024/01/01 12:46:54;;;;;;;;;;;231.10;2252.80;;;;;;4975236;28;19965;-76
2024/01/01 12:49:20;;;;;;;;;;;231.30;2252.80;;;;;;4975918;28;19928;-79
2024/01/01 12:51:46;;;;;;;;;;;256.00;2252.80;;;;;;4958946;28;19992;-74
2024/01/01 12:54:11;;;;;;;;;;;256.10;2252.80;;;;;;4958189;28;19996;-79
2024/01/01 12:56:37;;;;;;;;;;;231.30;2252.80;;;;;;4958847;28;19993;-79
2024/01/01 12:59:03;;;;;;;;;;;231.20;2252.80;;;;;;4958633;28;20006;-79
2024/01/01 13:01:28;;;;;;;;;;;231.10;2252.80;;;;;;4963900;28;19929;-78
2024/01/01 13:03:55;;;;;;;;;;;231.20;2252.80;;;;;;4958503;28;20361;-78
2024/01/01 13:06:21;;;;;;;;;;;231.10;2252.80;;;;;;4958336;28;19960;-79
2024/01/01 13:08:48;;;;;;;;;;;231.20;2252.80;;;;;;4958842;28;20360;-79
2024/01/01 13:11:13;;;;;;;;;;;231.20;2252.80;;;;;;4959493;28;19910;-79
2024/01/01 13:13:39;;;;;;;;;;;231.20;2252.80;;;;;;4975379;28;19916;-78
2024/01/01 13:16:05;;;;;;;;;;;231.20;2252.80;;;;;;4975167;28;20016;-77
2024/01/01 13:18:31;;;;;;;;;;;231.20;2252.80;;;;;;4975061;28;19910;-78
2024/01/01 13:20:57;;;;;;;;;;;231.30;2252.80;;;;;;4945229;28;19917;-76
2024/01/01 13:23:22;;;;;;;;;;;256.00;2252.80;;;;;;4957655;28;19925;-77
2024/01/01 13:25:49;;;;;;;;;;;256.10;2252.80;;;;;;4957714;28;19960;-77
2024/01/01 13:28:19;;;;;;;;;;;256.20;2252.80;;;;;;4957662;28;19910;-78
2024/01/01 13:30:45;;;;;;;;;;;256.20;2252.80;;;;;;4960904;28;19906;-77
2024/01/01 13:33:11;;;;;;;;;;;256.10;2252.80;;;;;;4957533;28;19910;-78
2024/01/01 13:35:39;;;;;;;;;;;256.20;2252.80;;;;;;4957761;28;19913;-79
2024/01/01 13:38:05;;;;;;;;;;;256.20;2252.80;;;;;;4956551;28;19925;-78